Aviation Digital Data Service (ADDS)

Output produced by METARs form (2254 UTC 23 October 2019)
found at http://www.aviationweather.gov/metar/data/
 
METAR text: RJBT 230900Z VRB01KT 9999 FEW015 SCT020 BKN170 18/15 Q1017
Conditions at: RJBT (TAJIMA , JP) observed 0900 UTC 23 October 2019
Temperature: 18.0°C (64°F)
Dewpoint: 15.0°C (59°F) [RH = 83%]
Pressure (altimeter): 30.03 inches Hg (1017.0 mb)
Winds: variable direction winds at 1 MPH (1 knots; 0.5 m/s)
Visibility: 6 or more miles (10+ km)
Ceiling: 17000 feet AGL
Clouds: few clouds at 1500 feet AGL
scattered clouds at 2000 feet AGL
broken clouds at 17000 feet AGL
Weather: no significant weather observed at this time

METAR text: RJBT 230800Z 33003KT 9999 FEW015 SCT170 OVC/// 18/15 Q1017
Conditions at: RJBT (TAJIMA , JP) observed 0800 UTC 23 October 2019
Temperature: 18.0°C (64°F)
Dewpoint: 15.0°C (59°F) [RH = 83%]
Pressure (altimeter): 30.03 inches Hg (1017.0 mb)
Winds: from the NNW (330 degrees) at 3 MPH (3 knots; 1.5 m/s)
Visibility: 6 or more miles (10+ km)
Ceiling: at least 12,000 feet AGL
Clouds: few clouds at 1500 feet AGL
scattered clouds at 17000 feet AGL
Weather: no significant weather observed at this time

METAR text: RJBT 230700Z 02003KT 340V050 9999 FEW015 OVC/// 18/15 Q1017
Conditions at: RJBT (TAJIMA , JP) observed 0700 UTC 23 October 2019
Temperature: 18.0°C (64°F)
Dewpoint: 15.0°C (59°F) [RH = 83%]
Pressure (altimeter): 30.03 inches Hg (1017.0 mb)
Winds: from the NNE (20 degrees) at 3 MPH (3 knots; 1.5 m/s)
Visibility: 6 or more miles (10+ km)
Ceiling: at least 12,000 feet AGL
Clouds: few clouds at 1500 feet AGL
Weather: no significant weather observed at this time

METAR text: RJBT 230600Z 02006KT 340V050 9999 FEW015 SCT050 BKN/// 19/15 Q1017
Conditions at: RJBT (TAJIMA , JP) observed 0600 UTC 23 October 2019
Temperature: 19.0°C (66°F)
Dewpoint: 15.0°C (59°F) [RH = 78%]
Pressure (altimeter): 30.03 inches Hg (1017.0 mb)
Winds: from the NNE (20 degrees) at 7 MPH (6 knots; 3.1 m/s)
Visibility: 6 or more miles (10+ km)
Ceiling: at least 12,000 feet AGL
Clouds: few clouds at 1500 feet AGL
scattered clouds at 5000 feet AGL
Weather: no significant weather observed at this time

METAR text: RJBT 230500Z 02005KT 320V050 9999 FEW020 BKN/// 20/15 Q1016
Conditions at: RJBT (TAJIMA , JP) observed 0500 UTC 23 October 2019
Temperature: 20.0°C (68°F)
Dewpoint: 15.0°C (59°F) [RH = 73%]
Pressure (altimeter): 30.00 inches Hg (1016.0 mb)
Winds: from the NNE (20 degrees) at 6 MPH (5 knots; 2.6 m/s)
Visibility: 6 or more miles (10+ km)
Ceiling: at least 12,000 feet AGL
Clouds: few clouds at 2000 feet AGL
Weather: no significant weather observed at this time

METAR text: RJBT 230400Z 01007KT 330V050 9999 FEW015 BKN/// 20/14 Q1016
Conditions at: RJBT (TAJIMA , JP) observed 0400 UTC 23 October 2019
Temperature: 20.0°C (68°F)
Dewpoint: 14.0°C (57°F) [RH = 68%]
Pressure (altimeter): 30.00 inches Hg (1016.0 mb)
Winds: from the N (10 degrees) at 8 MPH (7 knots; 3.6 m/s)
Visibility: 6 or more miles (10+ km)
Ceiling: at least 12,000 feet AGL
Clouds: few clouds at 1500 feet AGL
Weather: no significant weather observed at this time

METAR text: RJBT 230300Z 01006KT 340V050 9999 FEW015 SCT030 BKN/// 20/16 Q1016
Conditions at: RJBT (TAJIMA , JP) observed 0300 UTC 23 October 2019
Temperature: 20.0°C (68°F)
Dewpoint: 16.0°C (61°F) [RH = 78%]
Pressure (altimeter): 30.00 inches Hg (1016.0 mb)
Winds: from the N (10 degrees) at 7 MPH (6 knots; 3.1 m/s)
Visibility: 6 or more miles (10+ km)
Ceiling: at least 12,000 feet AGL
Clouds: few clouds at 1500 feet AGL
scattered clouds at 3000 feet AGL
Weather: no significant weather observed at this time

METAR text: RJBT 230200Z 01005KT 330V050 9999 FEW008 SCT015 BKN/// 19/15 Q1017
Conditions at: RJBT (TAJIMA , JP) observed 0200 UTC 23 October 2019
Temperature: 19.0°C (66°F)
Dewpoint: 15.0°C (59°F) [RH = 78%]
Pressure (altimeter): 30.03 inches Hg (1017.0 mb)
Winds: from the N (10 degrees) at 6 MPH (5 knots; 2.6 m/s)
Visibility: 6 or more miles (10+ km)
Ceiling: at least 12,000 feet AGL
Clouds: few clouds at 800 feet AGL
scattered clouds at 1500 feet AGL
Weather: no significant weather observed at this time

METAR text: RJBT 230100Z 06005KT 020V110 9999 FEW000 SCT015 BKN/// 19/17 Q1017
Conditions at: RJBT (TAJIMA , JP) observed 0100 UTC 23 October 2019
Temperature: 19.0°C (66°F)
Dewpoint: 17.0°C (63°F) [RH = 88%]
Pressure (altimeter): 30.03 inches Hg (1017.0 mb)
Winds: from the ENE (60 degrees) at 6 MPH (5 knots; 2.6 m/s)
Visibility: 6 or more miles (10+ km)
Ceiling: at least 12,000 feet AGL
Clouds: few clouds at 0 feet AGL
scattered clouds at 1500 feet AGL
Weather: no significant weather observed at this time

METAR text: RJBT 230021Z 02005KT 330V060 5000 BCFG FEW000 SCT010 18/17 Q1017 RMK 1ST000 3CU010 A3005 FG BANK NE-W
Conditions at: RJBT (TAJIMA , JP) observed 0021 UTC 23 October 2019
Temperature: 18.0°C (64°F)
Dewpoint: 17.0°C (63°F) [RH = 94%]
Pressure (altimeter): 30.03 inches Hg (1017.0 mb)
Winds: from the NNE (20 degrees) at 6 MPH (5 knots; 2.6 m/s)
Visibility: 3 miles ( 5 km)
Ceiling: at least 12,000 feet AGL
Clouds: few clouds at 0 feet AGL
scattered clouds at 1000 feet AGL
Weather: BCFG  (patches of fog)

METAR text: RJBT 230000Z 02004KT 350V050 3500 BCFG FEW000 SCT010 18/17 Q1017
Conditions at: RJBT (TAJIMA , JP) observed 0000 UTC 23 October 2019
Temperature: 18.0°C (64°F)
Dewpoint: 17.0°C (63°F) [RH = 94%]
Pressure (altimeter): 30.03 inches Hg (1017.0 mb)
Winds: from the NNE (20 degrees) at 5 MPH (4 knots; 2.1 m/s)
Visibility: 2.17 miles (3.49 km)
Ceiling: at least 12,000 feet AGL
Clouds: few clouds at 0 feet AGL
scattered clouds at 1000 feet AGL
Weather: BCFG  (patches of fog)

METAR text: RJBT 222330Z 35003KT 2500 BCFG FEW000 SCT010 BKN025 17/17 Q1017
Conditions at: RJBT (TAJIMA , JP) observed 2330 UTC 22 October 2019
Temperature: 17.0°C (63°F)
Dewpoint: 17.0°C (63°F) [RH = 100%]
Pressure (altimeter): 30.03 inches Hg (1017.0 mb)
Winds: from the N (350 degrees) at 3 MPH (3 knots; 1.5 m/s)
Visibility: 1.55 miles (2.49 km)
Ceiling: 2500 feet AGL
Clouds: few clouds at 0 feet AGL
scattered clouds at 1000 feet AGL
broken clouds at 2500 feet AGL
Weather: BCFG  (patches of fog)